<?xml version="1.0" encoding="UTF-8" standalone="no" ?>
<gpx xmlns="http://www.topografix.com/GPX/1/1" xmlns:xsi="http://www.w3.org/2001/XMLSchema-instance" xsi:schemaLocation="http://www.topografix.com/GPX/1/1 http://www.topografix.com/GPX/1/1/gpx.xsd" version="1.1" creator="VisuGPX - https://www.visugpx.com">
  <metadata>
    <name>Turquie_100points</name>
  </metadata>
  <trk>
    <name><![CDATA[Tour d'Europe: étape 572]]></name>
    <extensions>
      <line xmlns="http://www.topografix.com/GPX/gpx_style/0/2">
        <color>000088</color>
        <width>4</width>
      </line>
    </extensions>
    <trkseg>
      <trkpt lat="36.23762" lon="29.98978">
        <ele>31.144357</ele>
        <time>2022-01-21T07:38:43.023Z</time>
      </trkpt>
      <trkpt lat="36.23851" lon="29.98907">
        <ele>32.836468</ele>
        <time>2022-01-21T07:45:24.309Z</time>
      </trkpt>
      <trkpt lat="36.23918" lon="29.98691">
        <ele>42.973524</ele>
        <time>2022-01-21T07:48:15.302Z</time>
      </trkpt>
      <trkpt lat="36.23898" lon="29.98389">
        <ele>40.091667</ele>
        <time>2022-01-21T07:49:41.280Z</time>
      </trkpt>
      <trkpt lat="36.23852" lon="29.98104">
        <ele>35.633502</ele>
        <time>2022-01-21T07:50:34.278Z</time>
      </trkpt>
      <trkpt lat="36.23808" lon="29.97833">
        <ele>26.783012</ele>
        <time>2022-01-21T07:51:26.272Z</time>
      </trkpt>
      <trkpt lat="36.23766" lon="29.97592">
        <ele>25.284758</ele>
        <time>2022-01-21T07:52:08.255Z</time>
      </trkpt>
      <trkpt lat="36.23726" lon="29.97348">
        <ele>23.692296</ele>
        <time>2022-01-21T07:52:51.279Z</time>
      </trkpt>
      <trkpt lat="36.23659" lon="29.97085">
        <ele>22.966004</ele>
        <time>2022-01-21T07:53:40.302Z</time>
      </trkpt>
      <trkpt lat="36.23533" lon="29.9683">
        <ele>23.366444</ele>
        <time>2022-01-21T07:54:40.271Z</time>
      </trkpt>
      <trkpt lat="36.23506" lon="29.96675">
        <ele>24.977525</ele>
        <time>2022-01-21T08:09:08.312Z</time>
      </trkpt>
      <trkpt lat="36.23481" lon="29.96396">
        <ele>25.841885</ele>
        <time>2022-01-21T08:09:59.271Z</time>
      </trkpt>
      <trkpt lat="36.23459" lon="29.96117">
        <ele>30.856655</ele>
        <time>2022-01-21T08:10:59.286Z</time>
      </trkpt>
      <trkpt lat="36.2335" lon="29.95892">
        <ele>38.685882</ele>
        <time>2022-01-21T08:12:06.277Z</time>
      </trkpt>
      <trkpt lat="36.23197" lon="29.95722">
        <ele>46.28243</ele>
        <time>2022-01-21T08:13:49.285Z</time>
      </trkpt>
      <trkpt lat="36.23107" lon="29.95503">
        <ele>51.614915</ele>
        <time>2022-01-21T08:15:31.272Z</time>
      </trkpt>
      <trkpt lat="36.23022" lon="29.95257">
        <ele>60.396107</ele>
        <time>2022-01-21T08:17:03.271Z</time>
      </trkpt>
      <trkpt lat="36.22978" lon="29.95009">
        <ele>69.920819</ele>
        <time>2022-01-21T08:18:53.285Z</time>
      </trkpt>
      <trkpt lat="36.22908" lon="29.94781">
        <ele>83.529606</ele>
        <time>2022-01-21T08:20:39.305Z</time>
      </trkpt>
      <trkpt lat="36.23007" lon="29.94582">
        <ele>100.880827</ele>
        <time>2022-01-21T08:22:32.283Z</time>
      </trkpt>
      <trkpt lat="36.23186" lon="29.94457">
        <ele>109.6393</ele>
        <time>2022-01-21T08:24:19.288Z</time>
      </trkpt>
      <trkpt lat="36.23377" lon="29.94483">
        <ele>113.983985</ele>
        <time>2022-01-21T08:26:18.264Z</time>
      </trkpt>
      <trkpt lat="36.23584" lon="29.94473">
        <ele>125.374515</ele>
        <time>2022-01-21T08:28:25.322Z</time>
      </trkpt>
      <trkpt lat="36.23759" lon="29.94421">
        <ele>136.856899</ele>
        <time>2022-01-21T08:30:40.292Z</time>
      </trkpt>
      <trkpt lat="36.239" lon="29.94274">
        <ele>142.274914</ele>
        <time>2022-01-21T08:32:13.319Z</time>
      </trkpt>
      <trkpt lat="36.24083" lon="29.94384">
        <ele>149.189278</ele>
        <time>2022-01-21T08:34:16.287Z</time>
      </trkpt>
      <trkpt lat="36.24266" lon="29.94499">
        <ele>158.832155</ele>
        <time>2022-01-21T08:36:30.286Z</time>
      </trkpt>
      <trkpt lat="36.24407" lon="29.94572">
        <ele>164.99903</ele>
        <time>2022-01-21T08:49:57.283Z</time>
      </trkpt>
      <trkpt lat="36.24592" lon="29.947">
        <ele>173.519092</ele>
        <time>2022-01-21T08:51:44.289Z</time>
      </trkpt>
      <trkpt lat="36.24762" lon="29.9485">
        <ele>182.071513</ele>
        <time>2022-01-21T08:53:36.281Z</time>
      </trkpt>
      <trkpt lat="36.24928" lon="29.94984">
        <ele>189.49132</ele>
        <time>2022-01-21T08:55:18.273Z</time>
      </trkpt>
      <trkpt lat="36.24919" lon="29.94756">
        <ele>197.328033</ele>
        <time>2022-01-21T08:57:18.269Z</time>
      </trkpt>
      <trkpt lat="36.24862" lon="29.94504">
        <ele>204.944256</ele>
        <time>2022-01-21T08:59:01.314Z</time>
      </trkpt>
      <trkpt lat="36.24846" lon="29.94258">
        <ele>208.946975</ele>
        <time>2022-01-21T09:00:29.286Z</time>
      </trkpt>
      <trkpt lat="36.24919" lon="29.93931">
        <ele>205.463793</ele>
        <time>2022-01-21T09:01:22.329Z</time>
      </trkpt>
      <trkpt lat="36.24788" lon="29.93836">
        <ele>204.540159</ele>
        <time>2022-01-21T09:02:53.286Z</time>
      </trkpt>
      <trkpt lat="36.24633" lon="29.93646">
        <ele>202.667199</ele>
        <time>2022-01-21T09:04:05.277Z</time>
      </trkpt>
      <trkpt lat="36.24513" lon="29.93443">
        <ele>217.256163</ele>
        <time>2022-01-21T09:06:17.295Z</time>
      </trkpt>
      <trkpt lat="36.24368" lon="29.93294">
        <ele>221.782165</ele>
        <time>2022-01-21T09:08:27.313Z</time>
      </trkpt>
      <trkpt lat="36.24385" lon="29.93032">
        <ele>226.122101</ele>
        <time>2022-01-21T09:09:52.309Z</time>
      </trkpt>
      <trkpt lat="36.24486" lon="29.92836">
        <ele>224.665637</ele>
        <time>2022-01-21T09:11:01.292Z</time>
      </trkpt>
      <trkpt lat="36.24471" lon="29.92585">
        <ele>225.30911</ele>
        <time>2022-01-21T09:12:18.274Z</time>
      </trkpt>
      <trkpt lat="36.24431" lon="29.92321">
        <ele>215.990889</ele>
        <time>2022-01-21T09:13:11.292Z</time>
      </trkpt>
      <trkpt lat="36.24394" lon="29.9204">
        <ele>200.334785</ele>
        <time>2022-01-21T09:13:58.270Z</time>
      </trkpt>
      <trkpt lat="36.24354" lon="29.9178">
        <ele>183.614732</ele>
        <time>2022-01-21T09:14:44.303Z</time>
      </trkpt>
      <trkpt lat="36.24195" lon="29.91578">
        <ele>169.330435</ele>
        <time>2022-01-21T09:15:26.303Z</time>
      </trkpt>
      <trkpt lat="36.24034" lon="29.91381">
        <ele>157.274533</ele>
        <time>2022-01-21T09:16:11.294Z</time>
      </trkpt>
      <trkpt lat="36.23943" lon="29.91115">
        <ele>151.596885</ele>
        <time>2022-01-21T09:17:00.274Z</time>
      </trkpt>
      <trkpt lat="36.23956" lon="29.90856">
        <ele>144.726341</ele>
        <time>2022-01-21T09:17:49.303Z</time>
      </trkpt>
      <trkpt lat="36.23783" lon="29.90736">
        <ele>155.409822</ele>
        <time>2022-01-21T09:20:14.319Z</time>
      </trkpt>
      <trkpt lat="36.23622" lon="29.90745">
        <ele>175.041654</ele>
        <time>2022-01-21T09:22:48.267Z</time>
      </trkpt>
      <trkpt lat="36.23547" lon="29.90525">
        <ele>173.410791</ele>
        <time>2022-01-21T09:24:35.293Z</time>
      </trkpt>
      <trkpt lat="36.23439" lon="29.90264">
        <ele>159.934539</ele>
        <time>2022-01-21T09:25:21.287Z</time>
      </trkpt>
      <trkpt lat="36.23327" lon="29.90036">
        <ele>151.211615</ele>
        <time>2022-01-21T09:26:02.292Z</time>
      </trkpt>
      <trkpt lat="36.23184" lon="29.8983">
        <ele>144.59547</ele>
        <time>2022-01-21T09:26:45.281Z</time>
      </trkpt>
      <trkpt lat="36.231" lon="29.89581">
        <ele>146.383671</ele>
        <time>2022-01-21T09:27:59.292Z</time>
      </trkpt>
      <trkpt lat="36.23038" lon="29.89335">
        <ele>145.472145</ele>
        <time>2022-01-21T09:28:55.326Z</time>
      </trkpt>
      <trkpt lat="36.22988" lon="29.89089">
        <ele>156.744823</ele>
        <time>2022-01-21T09:30:25.300Z</time>
      </trkpt>
      <trkpt lat="36.22895" lon="29.88862">
        <ele>156.994089</ele>
        <time>2022-01-21T09:31:39.276Z</time>
      </trkpt>
      <trkpt lat="36.22776" lon="29.88623">
        <ele>150.788095</ele>
        <time>2022-01-21T09:32:23.299Z</time>
      </trkpt>
      <trkpt lat="36.22583" lon="29.8847">
        <ele>141.523375</ele>
        <time>2022-01-21T09:33:05.303Z</time>
      </trkpt>
      <trkpt lat="36.22374" lon="29.88361">
        <ele>135.083159</ele>
        <time>2022-01-21T09:33:58.319Z</time>
      </trkpt>
      <trkpt lat="36.22208" lon="29.88165">
        <ele>129.509596</ele>
        <time>2022-01-21T09:34:53.329Z</time>
      </trkpt>
      <trkpt lat="36.2205" lon="29.87971">
        <ele>121.97463</ele>
        <time>2022-01-21T09:35:44.300Z</time>
      </trkpt>
      <trkpt lat="36.21934" lon="29.87745">
        <ele>118.408131</ele>
        <time>2022-01-21T09:36:33.298Z</time>
      </trkpt>
      <trkpt lat="36.2184" lon="29.87519">
        <ele>127.193347</ele>
        <time>2022-01-21T09:37:58.284Z</time>
      </trkpt>
      <trkpt lat="36.21858" lon="29.87309">
        <ele>151.899534</ele>
        <time>2022-01-21T09:41:18.269Z</time>
      </trkpt>
      <trkpt lat="36.21962" lon="29.87111">
        <ele>173.167113</ele>
        <time>2022-01-21T09:44:24.275Z</time>
      </trkpt>
      <trkpt lat="36.21948" lon="29.86891">
        <ele>187.402947</ele>
        <time>2022-01-21T09:47:37.331Z</time>
      </trkpt>
      <trkpt lat="36.21889" lon="29.86659">
        <ele>181.956251</ele>
        <time>2022-01-21T09:49:31.293Z</time>
      </trkpt>
      <trkpt lat="36.21966" lon="29.86447">
        <ele>163.309615</ele>
        <time>2022-01-21T09:50:18.280Z</time>
      </trkpt>
      <trkpt lat="36.21977" lon="29.86162">
        <ele>157.43615</ele>
        <time>2022-01-21T10:05:23.297Z</time>
      </trkpt>
      <trkpt lat="36.2198" lon="29.85908">
        <ele>151.254116</ele>
        <time>2022-01-21T10:06:05.292Z</time>
      </trkpt>
      <trkpt lat="36.2202" lon="29.85655">
        <ele>148.838801</ele>
        <time>2022-01-21T10:06:55.343Z</time>
      </trkpt>
      <trkpt lat="36.22064" lon="29.85383">
        <ele>142.605829</ele>
        <time>2022-01-21T10:07:44.295Z</time>
      </trkpt>
      <trkpt lat="36.2207" lon="29.85115">
        <ele>140.729594</ele>
        <time>2022-01-21T10:08:49.292Z</time>
      </trkpt>
      <trkpt lat="36.21965" lon="29.84887">
        <ele>137.184557</ele>
        <time>2022-01-21T10:09:59.289Z</time>
      </trkpt>
      <trkpt lat="36.21884" lon="29.84599">
        <ele>127.930759</ele>
        <time>2022-01-21T10:18:17.294Z</time>
      </trkpt>
      <trkpt lat="36.21877" lon="29.84327">
        <ele>132.385878</ele>
        <time>2022-01-21T10:19:09.293Z</time>
      </trkpt>
      <trkpt lat="36.21866" lon="29.84062">
        <ele>137.049914</ele>
        <time>2022-01-21T10:20:18.305Z</time>
      </trkpt>
      <trkpt lat="36.21856" lon="29.83784">
        <ele>132.647117</ele>
        <time>2022-01-21T10:21:14.295Z</time>
      </trkpt>
      <trkpt lat="36.21985" lon="29.83672">
        <ele>142.521535</ele>
        <time>2022-01-21T10:23:13.309Z</time>
      </trkpt>
      <trkpt lat="36.22173" lon="29.83582">
        <ele>156.788688</ele>
        <time>2022-01-21T10:25:57.294Z</time>
      </trkpt>
      <trkpt lat="36.22271" lon="29.83392">
        <ele>165.711988</ele>
        <time>2022-01-21T10:28:21.333Z</time>
      </trkpt>
      <trkpt lat="36.2226" lon="29.83158">
        <ele>171.131437</ele>
        <time>2022-01-21T10:30:57.347Z</time>
      </trkpt>
      <trkpt lat="36.22184" lon="29.82929">
        <ele>183.075865</ele>
        <time>2022-01-21T10:33:40.307Z</time>
      </trkpt>
      <trkpt lat="36.22128" lon="29.82692">
        <ele>207.646366</ele>
        <time>2022-01-21T10:36:41.317Z</time>
      </trkpt>
      <trkpt lat="36.22129" lon="29.82462">
        <ele>225.597552</ele>
        <time>2022-01-21T10:39:32.319Z</time>
      </trkpt>
      <trkpt lat="36.22054" lon="29.82235">
        <ele>237.626278</ele>
        <time>2022-01-21T10:42:17.333Z</time>
      </trkpt>
      <trkpt lat="36.21943" lon="29.82041">
        <ele>260.92821</ele>
        <time>2022-01-21T10:45:33.320Z</time>
      </trkpt>
      <trkpt lat="36.21779" lon="29.81926">
        <ele>271.244029</ele>
        <time>2022-01-21T10:48:25.305Z</time>
      </trkpt>
      <trkpt lat="36.21728" lon="29.81704">
        <ele>295.000592</ele>
        <time>2022-01-21T10:51:46.315Z</time>
      </trkpt>
      <trkpt lat="36.21755" lon="29.8146">
        <ele>314.349753</ele>
        <time>2022-01-21T10:55:10.305Z</time>
      </trkpt>
      <trkpt lat="36.21708" lon="29.81232">
        <ele>327.520802</ele>
        <time>2022-01-21T10:58:06.322Z</time>
      </trkpt>
      <trkpt lat="36.21605" lon="29.81014">
        <ele>335.010753</ele>
        <time>2022-01-21T11:00:46.349Z</time>
      </trkpt>
      <trkpt lat="36.21507" lon="29.80799">
        <ele>342.272732</ele>
        <time>2022-01-21T11:03:25.329Z</time>
      </trkpt>
      <trkpt lat="36.21396" lon="29.80604">
        <ele>352.04335</ele>
        <time>2022-01-21T11:05:49.325Z</time>
      </trkpt>
      <trkpt lat="36.21287" lon="29.80391">
        <ele>364.174506</ele>
        <time>2022-01-21T11:08:28.335Z</time>
      </trkpt>
      <trkpt lat="36.21188" lon="29.80172">
        <ele>379.134891</ele>
        <time>2022-01-21T11:11:19.321Z</time>
      </trkpt>
      <trkpt lat="36.21107" lon="29.79958">
        <ele>394.561498</ele>
        <time>2022-01-21T11:13:54.317Z</time>
      </trkpt>
      <trkpt lat="36.20992" lon="29.79753">
        <ele>403.91821</ele>
        <time>2022-01-21T11:16:32.320Z</time>
      </trkpt>
      <trkpt lat="36.20869" lon="29.79567">
        <ele>414.116963</ele>
        <time>2022-01-21T11:18:43.315Z</time>
      </trkpt>
      <trkpt lat="36.20756" lon="29.79349">
        <ele>423.383204</ele>
        <time>2022-01-21T11:20:43.363Z</time>
      </trkpt>
      <trkpt lat="36.20627" lon="29.79156">
        <ele>429.407815</ele>
        <time>2022-01-21T11:22:56.303Z</time>
      </trkpt>
      <trkpt lat="36.20505" lon="29.7896">
        <ele>434.525552</ele>
        <time>2022-01-21T11:24:41.328Z</time>
      </trkpt>
      <trkpt lat="36.2037" lon="29.78761">
        <ele>437.727778</ele>
        <time>2022-01-21T11:26:16.302Z</time>
      </trkpt>
      <trkpt lat="36.20204" lon="29.78552">
        <ele>423.799376</ele>
        <time>2022-01-21T11:37:47.346Z</time>
      </trkpt>
      <trkpt lat="36.20094" lon="29.78326">
        <ele>406.915947</ele>
        <time>2022-01-21T11:38:29.315Z</time>
      </trkpt>
      <trkpt lat="36.19929" lon="29.78157">
        <ele>386.825748</ele>
        <time>2022-01-21T11:39:12.329Z</time>
      </trkpt>
      <trkpt lat="36.19813" lon="29.77938">
        <ele>367.448751</ele>
        <time>2022-01-21T11:39:58.388Z</time>
      </trkpt>
      <trkpt lat="36.19648" lon="29.77776">
        <ele>356.159049</ele>
        <time>2022-01-21T11:40:43.352Z</time>
      </trkpt>
      <trkpt lat="36.19591" lon="29.77532">
        <ele>344.748689</ele>
        <time>2022-01-21T11:41:28.391Z</time>
      </trkpt>
      <trkpt lat="36.19571" lon="29.77242">
        <ele>336.713869</ele>
        <time>2022-01-21T11:42:15.327Z</time>
      </trkpt>
      <trkpt lat="36.19565" lon="29.76998">
        <ele>326.943987</ele>
        <time>2022-01-21T11:43:12.326Z</time>
      </trkpt>
      <trkpt lat="36.19761" lon="29.76908">
        <ele>320.531822</ele>
        <time>2022-01-21T11:44:25.329Z</time>
      </trkpt>
      <trkpt lat="36.19959" lon="29.76816">
        <ele>322.757498</ele>
        <time>2022-01-21T11:45:44.317Z</time>
      </trkpt>
      <trkpt lat="36.20135" lon="29.76683">
        <ele>331.054089</ele>
        <time>2022-01-21T11:47:15.335Z</time>
      </trkpt>
      <trkpt lat="36.20281" lon="29.76654">
        <ele>351.993295</ele>
        <time>2022-01-21T11:50:06.339Z</time>
      </trkpt>
      <trkpt lat="36.20311" lon="29.76432">
        <ele>373.095972</ele>
        <time>2022-01-21T11:53:23.348Z</time>
      </trkpt>
      <trkpt lat="36.20344" lon="29.76259">
        <ele>388.891647</ele>
        <time>2022-01-21T11:56:29.342Z</time>
      </trkpt>
      <trkpt lat="36.20275" lon="29.7607">
        <ele>402.890043</ele>
        <time>2022-01-21T11:59:48.346Z</time>
      </trkpt>
      <trkpt lat="36.20416" lon="29.76257">
        <ele>419.268039</ele>
        <time>2022-01-21T12:02:24.330Z</time>
      </trkpt>
      <trkpt lat="36.20547" lon="29.76427">
        <ele>432.131057</ele>
        <time>2022-01-21T12:05:12.337Z</time>
      </trkpt>
      <trkpt lat="36.20698" lon="29.76582">
        <ele>451.203319</ele>
        <time>2022-01-21T12:08:16.330Z</time>
      </trkpt>
      <trkpt lat="36.20793" lon="29.76598">
        <ele>468.744089</ele>
        <time>2022-01-21T12:11:42.338Z</time>
      </trkpt>
      <trkpt lat="36.20815" lon="29.76434">
        <ele>484.370527</ele>
        <time>2022-01-21T12:15:11.342Z</time>
      </trkpt>
      <trkpt lat="36.20956" lon="29.76602">
        <ele>501.279858</ele>
        <time>2022-01-21T12:18:28.393Z</time>
      </trkpt>
      <trkpt lat="36.21107" lon="29.76742">
        <ele>519.943838</ele>
        <time>2022-01-21T12:21:49.344Z</time>
      </trkpt>
      <trkpt lat="36.21284" lon="29.76853">
        <ele>533.117433</ele>
        <time>2022-01-21T12:25:11.334Z</time>
      </trkpt>
      <trkpt lat="36.21488" lon="29.76875">
        <ele>542.115966</ele>
        <time>2022-01-21T12:27:43.347Z</time>
      </trkpt>
      <trkpt lat="36.217" lon="29.76876">
        <ele>544.790593</ele>
        <time>2022-01-21T12:40:25.338Z</time>
      </trkpt>
      <trkpt lat="36.21922" lon="29.76855">
        <ele>536.146429</ele>
        <time>2022-01-21T12:41:32.347Z</time>
      </trkpt>
      <trkpt lat="36.22131" lon="29.76792">
        <ele>523.089357</ele>
        <time>2022-01-21T12:42:16.342Z</time>
      </trkpt>
      <trkpt lat="36.22357" lon="29.76803">
        <ele>516.392439</ele>
        <time>2022-01-21T12:43:12.346Z</time>
      </trkpt>
      <trkpt lat="36.22566" lon="29.76797">
        <ele>526.41591</ele>
        <time>2022-01-21T12:45:18.353Z</time>
      </trkpt>
      <trkpt lat="36.22746" lon="29.76676">
        <ele>531.610515</ele>
        <time>2022-01-21T12:47:29.379Z</time>
      </trkpt>
      <trkpt lat="36.22919" lon="29.7667">
        <ele>552.635754</ele>
        <time>2022-01-21T12:50:16.352Z</time>
      </trkpt>
      <trkpt lat="36.22917" lon="29.76426">
        <ele>564.89383</ele>
        <time>2022-01-21T12:52:51.367Z</time>
      </trkpt>
      <trkpt lat="36.22996" lon="29.76191">
        <ele>564.469098</ele>
        <time>2022-01-21T12:54:30.349Z</time>
      </trkpt>
      <trkpt lat="36.22973" lon="29.75934">
        <ele>570.78287</ele>
        <time>2022-01-21T12:55:58.346Z</time>
      </trkpt>
      <trkpt lat="36.23036" lon="29.757">
        <ele>579.078024</ele>
        <time>2022-01-21T12:58:34.357Z</time>
      </trkpt>
      <trkpt lat="36.23042" lon="29.75455">
        <ele>588.3787</ele>
        <time>2022-01-21T13:01:13.348Z</time>
      </trkpt>
      <trkpt lat="36.23052" lon="29.75217">
        <ele>596.924331</ele>
        <time>2022-01-21T13:03:38.407Z</time>
      </trkpt>
      <trkpt lat="36.23143" lon="29.75035">
        <ele>608.828419</ele>
        <time>2022-01-21T13:06:20.358Z</time>
      </trkpt>
      <trkpt lat="36.23243" lon="29.74872">
        <ele>622.526534</ele>
        <time>2022-01-21T13:09:16.350Z</time>
      </trkpt>
      <trkpt lat="36.23272" lon="29.74588">
        <ele>618.444048</ele>
        <time>2022-01-21T13:10:13.372Z</time>
      </trkpt>
      <trkpt lat="36.2324" lon="29.74313">
        <ele>602.889936</ele>
        <time>2022-01-21T13:11:06.360Z</time>
      </trkpt>
      <trkpt lat="36.23407" lon="29.74215">
        <ele>591.617094</ele>
        <time>2022-01-21T13:11:47.395Z</time>
      </trkpt>
      <trkpt lat="36.23618" lon="29.74198">
        <ele>591.894233</ele>
        <time>2022-01-21T13:13:25.333Z</time>
      </trkpt>
      <trkpt lat="36.23776" lon="29.74007">
        <ele>585.919258</ele>
        <time>2022-01-21T13:14:27.346Z</time>
      </trkpt>
      <trkpt lat="36.23948" lon="29.73831">
        <ele>567.299355</ele>
        <time>2022-01-21T13:15:16.394Z</time>
      </trkpt>
      <trkpt lat="36.23885" lon="29.73579">
        <ele>562.135497</ele>
        <time>2022-01-21T13:16:30.371Z</time>
      </trkpt>
      <trkpt lat="36.23798" lon="29.733">
        <ele>548.82653</ele>
        <time>2022-01-21T13:17:12.366Z</time>
      </trkpt>
      <trkpt lat="36.23729" lon="29.72992">
        <ele>534.56897</ele>
        <time>2022-01-21T13:17:52.374Z</time>
      </trkpt>
      <trkpt lat="36.23615" lon="29.72685">
        <ele>522.248793</ele>
        <time>2022-01-21T13:18:34.365Z</time>
      </trkpt>
      <trkpt lat="36.2351" lon="29.72407">
        <ele>511.060935</ele>
        <time>2022-01-21T13:19:16.358Z</time>
      </trkpt>
      <trkpt lat="36.23396" lon="29.72162">
        <ele>503.582482</ele>
        <time>2022-01-21T13:19:56.367Z</time>
      </trkpt>
      <trkpt lat="36.23276" lon="29.71857">
        <ele>493.42618</ele>
        <time>2022-01-21T13:20:38.359Z</time>
      </trkpt>
      <trkpt lat="36.23306" lon="29.7159">
        <ele>495.443474</ele>
        <time>2022-01-21T13:21:55.372Z</time>
      </trkpt>
      <trkpt lat="36.2334" lon="29.71342">
        <ele>505.098074</ele>
        <time>2022-01-21T13:23:41.344Z</time>
      </trkpt>
      <trkpt lat="36.23413" lon="29.71108">
        <ele>519.030508</ele>
        <time>2022-01-21T13:26:05.357Z</time>
      </trkpt>
      <trkpt lat="36.23463" lon="29.70875">
        <ele>538.30854</ele>
        <time>2022-01-21T13:29:09.389Z</time>
      </trkpt>
      <trkpt lat="36.23346" lon="29.70698">
        <ele>555.78756</ele>
        <time>2022-01-21T13:32:00.364Z</time>
      </trkpt>
      <trkpt lat="36.23187" lon="29.7055">
        <ele>575.709887</ele>
        <time>2022-01-21T13:34:59.369Z</time>
      </trkpt>
      <trkpt lat="36.2309" lon="29.70334">
        <ele>590.177184</ele>
        <time>2022-01-21T13:38:18.422Z</time>
      </trkpt>
      <trkpt lat="36.23011" lon="29.70108">
        <ele>598.728331</ele>
        <time>2022-01-21T13:46:45.409Z</time>
      </trkpt>
      <trkpt lat="36.22817" lon="29.70127">
        <ele>602.514207</ele>
        <time>2022-01-21T13:48:31.374Z</time>
      </trkpt>
      <trkpt lat="36.22593" lon="29.70094">
        <ele>593.167244</ele>
        <time>2022-01-21T13:49:21.370Z</time>
      </trkpt>
      <trkpt lat="36.22395" lon="29.69924">
        <ele>578.282694</ele>
        <time>2022-01-21T13:50:03.360Z</time>
      </trkpt>
      <trkpt lat="36.22206" lon="29.6966">
        <ele>558.868507</ele>
        <time>2022-01-21T13:50:45.380Z</time>
      </trkpt>
      <trkpt lat="36.22109" lon="29.69373">
        <ele>535.866387</ele>
        <time>2022-01-21T13:51:25.367Z</time>
      </trkpt>
      <trkpt lat="36.21908" lon="29.69073">
        <ele>515.708554</ele>
        <time>2022-01-21T13:52:07.382Z</time>
      </trkpt>
      <trkpt lat="36.21783" lon="29.68769">
        <ele>513.775269</ele>
        <time>2022-01-21T13:52:49.378Z</time>
      </trkpt>
      <trkpt lat="36.21743" lon="29.68518">
        <ele>516.815472</ele>
        <time>2022-01-21T13:53:40.372Z</time>
      </trkpt>
      <trkpt lat="36.21669" lon="29.68224">
        <ele>511.245139</ele>
        <time>2022-01-21T13:54:32.378Z</time>
      </trkpt>
      <trkpt lat="36.21653" lon="29.67897">
        <ele>508.31894</ele>
        <time>2022-01-21T13:55:14.375Z</time>
      </trkpt>
      <trkpt lat="36.21522" lon="29.67667">
        <ele>504.868725</ele>
        <time>2022-01-21T13:56:01.382Z</time>
      </trkpt>
      <trkpt lat="36.21355" lon="29.67425">
        <ele>495.259364</ele>
        <time>2022-01-21T13:56:50.381Z</time>
      </trkpt>
      <trkpt lat="36.21105" lon="29.67298">
        <ele>482.875028</ele>
        <time>2022-01-21T13:57:32.364Z</time>
      </trkpt>
      <trkpt lat="36.20817" lon="29.67192">
        <ele>460.995287</ele>
        <time>2022-01-21T13:58:12.360Z</time>
      </trkpt>
      <trkpt lat="36.20564" lon="29.66982">
        <ele>427.992206</ele>
        <time>2022-01-21T13:58:54.387Z</time>
      </trkpt>
      <trkpt lat="36.20384" lon="29.66776">
        <ele>405.145003</ele>
        <time>2022-01-21T13:59:36.373Z</time>
      </trkpt>
      <trkpt lat="36.2021" lon="29.6663">
        <ele>387.962881</ele>
        <time>2022-01-21T14:00:16.384Z</time>
      </trkpt>
      <trkpt lat="36.2018" lon="29.66347">
        <ele>373.464019</ele>
        <time>2022-01-21T14:01:01.378Z</time>
      </trkpt>
      <trkpt lat="36.201" lon="29.66518">
        <ele>357.630943</ele>
        <time>2022-01-21T14:03:51.345Z</time>
      </trkpt>
      <trkpt lat="36.19913" lon="29.66652">
        <ele>336.921852</ele>
        <time>2022-01-21T14:04:31.381Z</time>
      </trkpt>
      <trkpt lat="36.19925" lon="29.66418">
        <ele>310.498482</ele>
        <time>2022-01-21T14:05:14.372Z</time>
      </trkpt>
      <trkpt lat="36.20046" lon="29.66134">
        <ele>290.926059</ele>
        <time>2022-01-21T14:05:56.425Z</time>
      </trkpt>
      <trkpt lat="36.20113" lon="29.65882">
        <ele>273.103382</ele>
        <time>2022-01-21T14:06:36.370Z</time>
      </trkpt>
      <trkpt lat="36.20049" lon="29.65581">
        <ele>248.736808</ele>
        <time>2022-01-21T14:07:18.387Z</time>
      </trkpt>
      <trkpt lat="36.20006" lon="29.65458">
        <ele>229.877415</ele>
        <time>2022-01-21T14:08:15.438Z</time>
      </trkpt>
      <trkpt lat="36.20017" lon="29.65268">
        <ele>213.293308</ele>
        <time>2022-01-21T14:09:20.373Z</time>
      </trkpt>
      <trkpt lat="36.2003" lon="29.65043">
        <ele>186.068218</ele>
        <time>2022-01-21T14:10:49.371Z</time>
      </trkpt>
      <trkpt lat="36.2003" lon="29.64799">
        <ele>148.023883</ele>
        <time>2022-01-21T14:16:18.401Z</time>
      </trkpt>
      <trkpt lat="36.19982" lon="29.6469">
        <ele>109.864915</ele>
        <time>2022-01-21T14:17:49.373Z</time>
      </trkpt>
      <trkpt lat="36.1994" lon="29.64389">
        <ele>58.705712</ele>
        <time>2022-01-21T14:24:47.375Z</time>
      </trkpt>
      <trkpt lat="36.20037" lon="29.6424">
        <ele>39.68153</ele>
        <time>2022-01-21T14:26:33.398Z</time>
      </trkpt>
      <trkpt lat="36.20038" lon="29.64007">
        <ele>39.850783</ele>
        <time>2022-01-21T14:28:57.385Z</time>
      </trkpt>
      <trkpt lat="36.19937" lon="29.63839">
        <ele>38.475082</ele>
        <time>2022-01-21T14:33:29.397Z</time>
      </trkpt>
      <trkpt lat="36.20002" lon="29.63727">
        <ele>38.475082</ele>
        <time>2022-01-21T14:38:16.455Z</time>
      </trkpt>
    </trkseg>
  </trk>
</gpx>